sensor_id;sensor_type;location;lat;lon;timestamp;P1;durP1;ratioP1;P2;durP2;ratioP2
15990;SDS011;8100;50.994;4.538;2023-08-17T00:01:58;2.00;;;1.50;;
15990;SDS011;8100;50.994;4.538;2023-08-17T00:04:46;4.22;;;1.80;;
15990;SDS011;8100;50.994;4.538;2023-08-17T00:07:34;3.67;;;1.48;;
15990;SDS011;8100;50.994;4.538;2023-08-17T00:10:22;2.13;;;1.70;;
15990;SDS011;8100;50.994;4.538;2023-08-17T00:13:10;4.35;;;1.90;;
15990;SDS011;8100;50.994;4.538;2023-08-17T00:15:57;1.92;;;1.70;;
15990;SDS011;8100;50.994;4.538;2023-08-17T00:18:44;3.35;;;1.73;;
15990;SDS011;8100;50.994;4.538;2023-08-17T00:21:32;2.83;;;1.75;;
15990;SDS011;8100;50.994;4.538;2023-08-17T00:24:20;2.08;;;1.40;;
15990;SDS011;8100;50.994;4.538;2023-08-17T00:27:08;4.18;;;1.60;;
15990;SDS011;8100;50.994;4.538;2023-08-17T00:29:55;2.80;;;1.70;;
15990;SDS011;8100;50.994;4.538;2023-08-17T00:32:42;2.85;;;1.80;;
15990;SDS011;8100;50.994;4.538;2023-08-17T00:35:29;3.63;;;2.08;;
15990;SDS011;8100;50.994;4.538;2023-08-17T00:38:18;2.80;;;1.90;;
15990;SDS011;8100;50.994;4.538;2023-08-17T00:41:06;2.72;;;1.77;;
15990;SDS011;8100;50.994;4.538;2023-08-17T00:43:54;2.67;;;1.80;;
15990;SDS011;8100;50.994;4.538;2023-08-17T00:46:41;2.28;;;1.77;;
15990;SDS011;8100;50.994;4.538;2023-08-17T00:49:28;2.17;;;1.88;;
15990;SDS011;8100;50.994;4.538;2023-08-17T00:52:16;3.97;;;2.00;;
15990;SDS011;8100;50.994;4.538;2023-08-17T00:55:04;2.15;;;1.70;;
15990;SDS011;8100;50.994;4.538;2023-08-17T00:57:54;1.70;;;1.60;;
15990;SDS011;8100;50.994;4.538;2023-08-17T01:00:43;2.50;;;2.00;;
15990;SDS011;8100;50.994;4.538;2023-08-17T01:03:31;3.75;;;2.00;;
15990;SDS011;8100;50.994;4.538;2023-08-17T01:06:19;3.40;;;1.83;;
15990;SDS011;8100;50.994;4.538;2023-08-17T01:09:06;2.35;;;2.05;;
15990;SDS011;8100;50.994;4.538;2023-08-17T01:11:56;2.40;;;1.80;;
15990;SDS011;8100;50.994;4.538;2023-08-17T01:18:00;5.32;;;2.20;;
15990;SDS011;8100;50.994;4.538;2023-08-17T01:20:57;2.05;;;1.80;;
15990;SDS011;8100;50.994;4.538;2023-08-17T01:23:46;4.25;;;1.77;;
15990;SDS011;8100;50.994;4.538;2023-08-17T01:26:35;2.85;;;1.90;;
15990;SDS011;8100;50.994;4.538;2023-08-17T01:29:22;4.35;;;1.80;;
15990;SDS011;8100;50.994;4.538;2023-08-17T01:32:12;3.33;;;1.83;;
15990;SDS011;8100;50.994;4.538;2023-08-17T01:35:04;2.90;;;2.10;;
15990;SDS011;8100;50.994;4.538;2023-08-17T01:37:58;1.88;;;1.60;;
15990;SDS011;8100;50.994;4.538;2023-08-17T01:40:50;3.85;;;1.98;;
15990;SDS011;8100;50.994;4.538;2023-08-17T01:43:40;2.85;;;1.85;;
15990;SDS011;8100;50.994;4.538;2023-08-17T01:46:31;3.50;;;1.90;;
15990;SDS011;8100;50.994;4.538;2023-08-17T01:49:19;2.03;;;1.80;;
15990;SDS011;8100;50.994;4.538;2023-08-17T01:52:06;2.97;;;1.70;;
15990;SDS011;8100;50.994;4.538;2023-08-17T01:54:54;3.22;;;1.80;;
15990;SDS011;8100;50.994;4.538;2023-08-17T01:57:42;2.35;;;1.80;;
15990;SDS011;8100;50.994;4.538;2023-08-17T02:00:30;2.58;;;1.80;;
15990;SDS011;8100;50.994;4.538;2023-08-17T02:03:17;3.08;;;1.90;;
15990;SDS011;8100;50.994;4.538;2023-08-17T02:06:05;2.22;;;1.75;;
15990;SDS011;8100;50.994;4.538;2023-08-17T02:08:53;2.92;;;1.70;;
15990;SDS011;8100;50.994;4.538;2023-08-17T02:11:40;4.78;;;2.10;;
15990;SDS011;8100;50.994;4.538;2023-08-17T02:14:29;1.98;;;1.77;;
15990;SDS011;8100;50.994;4.538;2023-08-17T02:17:16;2.80;;;1.63;;
15990;SDS011;8100;50.994;4.538;2023-08-17T02:20:07;3.58;;;1.83;;
15990;SDS011;8100;50.994;4.538;2023-08-17T02:22:55;2.42;;;1.55;;
15990;SDS011;8100;50.994;4.538;2023-08-17T02:25:43;2.47;;;1.77;;
15990;SDS011;8100;50.994;4.538;2023-08-17T02:28:30;5.28;;;1.60;;
15990;SDS011;8100;50.994;4.538;2023-08-17T02:31:19;3.00;;;1.60;;
15990;SDS011;8100;50.994;4.538;2023-08-17T02:34:06;3.38;;;1.70;;
15990;SDS011;8100;50.994;4.538;2023-08-17T02:36:55;2.17;;;1.70;;
15990;SDS011;8100;50.994;4.538;2023-08-17T02:39:42;2.97;;;1.85;;
15990;SDS011;8100;50.994;4.538;2023-08-17T02:42:29;3.08;;;1.83;;
15990;SDS011;8100;50.994;4.538;2023-08-17T02:45:16;5.00;;;1.83;;
15990;SDS011;8100;50.994;4.538;2023-08-17T02:48:05;2.03;;;1.70;;
15990;SDS011;8100;50.994;4.538;2023-08-17T02:50:53;3.80;;;1.60;;
15990;SDS011;8100;50.994;4.538;2023-08-17T02:53:40;3.78;;;2.13;;
15990;SDS011;8100;50.994;4.538;2023-08-17T02:56:27;3.00;;;1.90;;
15990;SDS011;8100;50.994;4.538;2023-08-17T02:59:15;2.78;;;1.63;;
15990;SDS011;8100;50.994;4.538;2023-08-17T03:02:02;2.17;;;1.52;;
15990;SDS011;8100;50.994;4.538;2023-08-17T03:04:50;4.43;;;1.58;;
15990;SDS011;8100;50.994;4.538;2023-08-17T03:07:38;3.42;;;1.60;;
15990;SDS011;8100;50.994;4.538;2023-08-17T03:10:25;2.88;;;1.50;;
15990;SDS011;8100;50.994;4.538;2023-08-17T03:13:12;3.63;;;1.63;;
15990;SDS011;8100;50.994;4.538;2023-08-17T03:15:59;2.45;;;1.60;;
15990;SDS011;8100;50.994;4.538;2023-08-17T03:18:47;2.63;;;1.67;;
15990;SDS011;8100;50.994;4.538;2023-08-17T03:21:35;3.75;;;1.70;;
15990;SDS011;8100;50.994;4.538;2023-08-17T03:24:23;2.78;;;1.90;;
15990;SDS011;8100;50.994;4.538;2023-08-17T03:27:10;3.55;;;1.70;;
15990;SDS011;8100;50.994;4.538;2023-08-17T03:29:57;2.35;;;1.80;;
15990;SDS011;8100;50.994;4.538;2023-08-17T03:32:44;2.42;;;1.85;;
15990;SDS011;8100;50.994;4.538;2023-08-17T03:35:32;3.50;;;1.90;;
15990;SDS011;8100;50.994;4.538;2023-08-17T03:38:20;2.17;;;1.90;;
15990;SDS011;8100;50.994;4.538;2023-08-17T03:41:08;3.08;;;2.00;;
15990;SDS011;8100;50.994;4.538;2023-08-17T03:43:55;4.30;;;2.03;;
15990;SDS011;8100;50.994;4.538;2023-08-17T03:46:42;2.13;;;1.80;;
15990;SDS011;8100;50.994;4.538;2023-08-17T03:49:30;2.05;;;1.58;;
15990;SDS011;8100;50.994;4.538;2023-08-17T03:52:17;2.75;;;1.80;;
15990;SDS011;8100;50.994;4.538;2023-08-17T03:55:06;2.75;;;1.60;;
15990;SDS011;8100;50.994;4.538;2023-08-17T03:57:54;3.00;;;2.00;;
15990;SDS011;8100;50.994;4.538;2023-08-17T04:00:41;2.22;;;1.80;;
15990;SDS011;8100;50.994;4.538;2023-08-17T04:03:28;3.33;;;1.70;;
15990;SDS011;8100;50.994;4.538;2023-08-17T04:06:16;3.72;;;1.90;;
15990;SDS011;8100;50.994;4.538;2023-08-17T04:09:03;3.22;;;1.98;;
15990;SDS011;8100;50.994;4.538;2023-08-17T04:11:52;4.03;;;1.85;;
15990;SDS011;8100;50.994;4.538;2023-08-17T04:14:40;3.40;;;1.90;;
15990;SDS011;8100;50.994;4.538;2023-08-17T04:17:27;3.70;;;2.15;;
15990;SDS011;8100;50.994;4.538;2023-08-17T04:20:14;2.22;;;1.70;;
15990;SDS011;8100;50.994;4.538;2023-08-17T04:23:03;2.42;;;1.73;;
15990;SDS011;8100;50.994;4.538;2023-08-17T04:25:50;3.85;;;2.00;;
15990;SDS011;8100;50.994;4.538;2023-08-17T04:28:41;5.22;;;1.50;;
15990;SDS011;8100;50.994;4.538;2023-08-17T04:31:29;4.22;;;1.80;;
15990;SDS011;8100;50.994;4.538;2023-08-17T04:34:16;2.45;;;1.60;;
15990;SDS011;8100;50.994;4.538;2023-08-17T04:37:03;4.82;;;1.50;;
15990;SDS011;8100;50.994;4.538;2023-08-17T04:39:50;2.53;;;1.73;;
15990;SDS011;8100;50.994;4.538;2023-08-17T04:42:38;2.35;;;1.70;;
15990;SDS011;8100;50.994;4.538;2023-08-17T04:45:27;2.53;;;1.50;;
15990;SDS011;8100;50.994;4.538;2023-08-17T04:48:14;3.58;;;1.60;;
15990;SDS011;8100;50.994;4.538;2023-08-17T04:51:01;3.33;;;1.80;;
15990;SDS011;8100;50.994;4.538;2023-08-17T04:53:48;2.30;;;1.70;;
15990;SDS011;8100;50.994;4.538;2023-08-17T04:56:36;4.95;;;1.90;;
15990;SDS011;8100;50.994;4.538;2023-08-17T04:59:23;5.55;;;1.80;;
15990;SDS011;8100;50.994;4.538;2023-08-17T05:02:12;4.13;;;2.10;;
15990;SDS011;8100;50.994;4.538;2023-08-17T05:04:59;2.40;;;1.70;;
15990;SDS011;8100;50.994;4.538;2023-08-17T05:07:49;3.47;;;1.60;;
15990;SDS011;8100;50.994;4.538;2023-08-17T05:10:36;2.83;;;1.52;;
15990;SDS011;8100;50.994;4.538;2023-08-17T05:13:23;3.60;;;1.52;;
15990;SDS011;8100;50.994;4.538;2023-08-17T05:16:11;4.80;;;1.55;;
15990;SDS011;8100;50.994;4.538;2023-08-17T05:18:59;2.95;;;1.70;;
15990;SDS011;8100;50.994;4.538;2023-08-17T05:21:47;2.83;;;1.52;;
15990;SDS011;8100;50.994;4.538;2023-08-17T05:24:36;3.58;;;1.73;;
15990;SDS011;8100;50.994;4.538;2023-08-17T05:27:24;4.32;;;1.83;;
15990;SDS011;8100;50.994;4.538;2023-08-17T05:30:11;1.98;;;1.50;;
15990;SDS011;8100;50.994;4.538;2023-08-17T05:32:59;2.67;;;1.75;;
15990;SDS011;8100;50.994;4.538;2023-08-17T05:35:48;3.40;;;1.70;;
15990;SDS011;8100;50.994;4.538;2023-08-17T05:38:40;3.03;;;1.40;;
15990;SDS011;8100;50.994;4.538;2023-08-17T05:41:27;3.72;;;1.90;;
15990;SDS011;8100;50.994;4.538;2023-08-17T05:44:14;4.60;;;1.95;;
15990;SDS011;8100;50.994;4.538;2023-08-17T05:47:03;3.03;;;1.58;;
15990;SDS011;8100;50.994;4.538;2023-08-17T05:49:50;2.08;;;1.38;;
15990;SDS011;8100;50.994;4.538;2023-08-17T05:52:40;3.88;;;1.75;;
15990;SDS011;8100;50.994;4.538;2023-08-17T05:55:28;4.38;;;1.77;;
15990;SDS011;8100;50.994;4.538;2023-08-17T05:58:15;4.35;;;1.73;;
15990;SDS011;8100;50.994;4.538;2023-08-17T06:01:05;2.55;;;1.50;;
15990;SDS011;8100;50.994;4.538;2023-08-17T06:03:53;5.00;;;1.90;;
15990;SDS011;8100;50.994;4.538;2023-08-17T06:06:40;2.88;;;1.60;;
15990;SDS011;8100;50.994;4.538;2023-08-17T06:09:29;3.60;;;1.77;;
15990;SDS011;8100;50.994;4.538;2023-08-17T06:12:16;3.70;;;1.55;;
15990;SDS011;8100;50.994;4.538;2023-08-17T06:15:05;2.28;;;1.60;;
15990;SDS011;8100;50.994;4.538;2023-08-17T06:17:52;2.95;;;1.70;;
15990;SDS011;8100;50.994;4.538;2023-08-17T06:20:40;3.28;;;1.77;;
15990;SDS011;8100;50.994;4.538;2023-08-17T06:23:27;3.95;;;1.50;;
15990;SDS011;8100;50.994;4.538;2023-08-17T06:26:16;5.10;;;1.67;;
15990;SDS011;8100;50.994;4.538;2023-08-17T06:29:03;2.30;;;1.70;;
15990;SDS011;8100;50.994;4.538;2023-08-17T06:31:51;3.15;;;1.60;;
15990;SDS011;8100;50.994;4.538;2023-08-17T06:34:38;2.63;;;1.45;;
15990;SDS011;8100;50.994;4.538;2023-08-17T06:37:25;3.63;;;1.90;;
15990;SDS011;8100;50.994;4.538;2023-08-17T06:40:13;4.78;;;2.10;;
15990;SDS011;8100;50.994;4.538;2023-08-17T06:43:01;4.70;;;2.25;;
15990;SDS011;8100;50.994;4.538;2023-08-17T06:45:49;2.75;;;2.17;;
15990;SDS011;8100;50.994;4.538;2023-08-17T06:48:36;6.10;;;2.30;;
15990;SDS011;8100;50.994;4.538;2023-08-17T06:51:23;3.08;;;2.00;;
15990;SDS011;8100;50.994;4.538;2023-08-17T06:54:11;5.32;;;2.50;;
15990;SDS011;8100;50.994;4.538;2023-08-17T06:56:58;3.05;;;2.30;;
15990;SDS011;8100;50.994;4.538;2023-08-17T06:59:47;2.58;;;2.00;;
15990;SDS011;8100;50.994;4.538;2023-08-17T07:02:34;3.13;;;2.03;;
15990;SDS011;8100;50.994;4.538;2023-08-17T07:05:21;5.78;;;2.35;;
15990;SDS011;8100;50.994;4.538;2023-08-17T07:08:09;3.90;;;2.30;;
15990;SDS011;8100;50.994;4.538;2023-08-17T07:10:56;4.18;;;2.10;;
15990;SDS011;8100;50.994;4.538;2023-08-17T07:13:44;3.40;;;2.03;;
15990;SDS011;8100;50.994;4.538;2023-08-17T07:16:32;2.38;;;1.92;;
15990;SDS011;8100;50.994;4.538;2023-08-17T07:19:20;4.68;;;2.20;;
15990;SDS011;8100;50.994;4.538;2023-08-17T07:22:08;3.65;;;1.88;;
15990;SDS011;8100;50.994;4.538;2023-08-17T07:24:55;3.10;;;2.08;;
15990;SDS011;8100;50.994;4.538;2023-08-17T07:27:42;5.75;;;2.20;;
15990;SDS011;8100;50.994;4.538;2023-08-17T07:30:30;3.13;;;2.20;;
15990;SDS011;8100;50.994;4.538;2023-08-17T07:33:18;5.70;;;3.10;;
15990;SDS011;8100;50.994;4.538;2023-08-17T07:36:06;13.20;;;5.00;;
15990;SDS011;8100;50.994;4.538;2023-08-17T07:38:53;3.70;;;2.28;;
15990;SDS011;8100;50.994;4.538;2023-08-17T07:41:41;4.13;;;2.20;;
15990;SDS011;8100;50.994;4.538;2023-08-17T07:44:28;4.25;;;2.42;;
15990;SDS011;8100;50.994;4.538;2023-08-17T07:47:17;4.70;;;2.20;;
15990;SDS011;8100;50.994;4.538;2023-08-17T07:50:06;4.20;;;2.20;;
15990;SDS011;8100;50.994;4.538;2023-08-17T07:52:54;4.97;;;2.30;;
15990;SDS011;8100;50.994;4.538;2023-08-17T07:55:41;3.53;;;2.40;;
15990;SDS011;8100;50.994;4.538;2023-08-17T07:58:28;3.97;;;2.17;;
15990;SDS011;8100;50.994;4.538;2023-08-17T08:01:15;3.25;;;2.10;;
15990;SDS011;8100;50.994;4.538;2023-08-17T08:04:04;3.28;;;2.08;;
15990;SDS011;8100;50.994;4.538;2023-08-17T08:06:53;3.38;;;2.20;;
15990;SDS011;8100;50.994;4.538;2023-08-17T08:09:40;5.07;;;2.10;;
15990;SDS011;8100;50.994;4.538;2023-08-17T08:12:28;4.03;;;2.47;;
15990;SDS011;8100;50.994;4.538;2023-08-17T08:15:15;4.13;;;2.30;;
15990;SDS011;8100;50.994;4.538;2023-08-17T08:18:02;3.10;;;2.55;;
15990;SDS011;8100;50.994;4.538;2023-08-17T08:20:50;4.45;;;2.40;;
15990;SDS011;8100;50.994;4.538;2023-08-17T08:23:39;7.38;;;2.40;;
15990;SDS011;8100;50.994;4.538;2023-08-17T08:26:26;5.00;;;2.85;;
15990;SDS011;8100;50.994;4.538;2023-08-17T08:29:13;4.80;;;2.60;;
15990;SDS011;8100;50.994;4.538;2023-08-17T08:32:01;4.97;;;2.40;;
15990;SDS011;8100;50.994;4.538;2023-08-17T08:34:48;4.53;;;2.72;;
15990;SDS011;8100;50.994;4.538;2023-08-17T08:37:36;6.45;;;2.70;;
15990;SDS011;8100;50.994;4.538;2023-08-17T08:40:26;4.43;;;2.47;;
15990;SDS011;8100;50.994;4.538;2023-08-17T08:43:14;10.48;;;3.50;;
15990;SDS011;8100;50.994;4.538;2023-08-17T08:46:02;5.25;;;2.60;;
15990;SDS011;8100;50.994;4.538;2023-08-17T08:48:50;3.33;;;2.35;;
15990;SDS011;8100;50.994;4.538;2023-08-17T08:51:41;6.28;;;2.83;;
15990;SDS011;8100;50.994;4.538;2023-08-17T08:54:30;6.80;;;3.22;;
15990;SDS011;8100;50.994;4.538;2023-08-17T08:57:19;9.40;;;3.10;;
15990;SDS011;8100;50.994;4.538;2023-08-17T09:00:08;4.32;;;2.60;;
15990;SDS011;8100;50.994;4.538;2023-08-17T09:02:57;4.68;;;2.80;;
15990;SDS011;8100;50.994;4.538;2023-08-17T09:05:48;5.75;;;3.00;;
15990;SDS011;8100;50.994;4.538;2023-08-17T09:08:36;5.88;;;3.30;;
15990;SDS011;8100;50.994;4.538;2023-08-17T09:11:25;7.00;;;2.72;;
15990;SDS011;8100;50.994;4.538;2023-08-17T09:14:13;6.18;;;3.30;;
15990;SDS011;8100;50.994;4.538;2023-08-17T09:17:01;8.13;;;3.40;;
15990;SDS011;8100;50.994;4.538;2023-08-17T09:19:48;4.63;;;2.90;;
15990;SDS011;8100;50.994;4.538;2023-08-17T09:22:38;9.40;;;3.10;;
15990;SDS011;8100;50.994;4.538;2023-08-17T09:25:27;6.07;;;3.30;;
15990;SDS011;8100;50.994;4.538;2023-08-17T09:28:14;5.95;;;2.83;;
15990;SDS011;8100;50.994;4.538;2023-08-17T09:31:04;4.88;;;2.90;;
15990;SDS011;8100;50.994;4.538;2023-08-17T09:33:51;3.72;;;2.80;;
15990;SDS011;8100;50.994;4.538;2023-08-17T09:36:39;4.38;;;3.38;;
15990;SDS011;8100;50.994;4.538;2023-08-17T09:39:27;6.18;;;3.28;;
15990;SDS011;8100;50.994;4.538;2023-08-17T09:42:14;4.53;;;2.75;;
15990;SDS011;8100;50.994;4.538;2023-08-17T09:45:03;9.30;;;3.90;;
15990;SDS011;8100;50.994;4.538;2023-08-17T09:47:53;5.10;;;3.50;;
15990;SDS011;8100;50.994;4.538;2023-08-17T09:50:41;5.22;;;3.65;;
15990;SDS011;8100;50.994;4.538;2023-08-17T09:53:29;4.47;;;2.88;;
15990;SDS011;8100;50.994;4.538;2023-08-17T09:56:20;6.15;;;3.75;;
15990;SDS011;8100;50.994;4.538;2023-08-17T09:59:10;4.13;;;3.40;;
15990;SDS011;8100;50.994;4.538;2023-08-17T10:01:57;4.97;;;3.30;;
15990;SDS011;8100;50.994;4.538;2023-08-17T10:04:49;8.57;;;3.40;;
15990;SDS011;8100;50.994;4.538;2023-08-17T10:07:38;4.65;;;3.30;;
15990;SDS011;8100;50.994;4.538;2023-08-17T10:10:30;3.95;;;3.40;;
15990;SDS011;8100;50.994;4.538;2023-08-17T10:13:22;6.95;;;3.75;;
15990;SDS011;8100;50.994;4.538;2023-08-17T10:16:16;5.80;;;3.55;;
15990;SDS011;8100;50.994;4.538;2023-08-17T10:19:10;5.57;;;3.28;;
15990;SDS011;8100;50.994;4.538;2023-08-17T10:22:08;5.53;;;3.75;;
15990;SDS011;8100;50.994;4.538;2023-08-17T10:25:00;9.95;;;4.22;;
15990;SDS011;8100;50.994;4.538;2023-08-17T10:27:48;7.28;;;3.88;;
15990;SDS011;8100;50.994;4.538;2023-08-17T10:30:37;5.72;;;3.70;;
15990;SDS011;8100;50.994;4.538;2023-08-17T10:33:26;5.72;;;3.83;;
15990;SDS011;8100;50.994;4.538;2023-08-17T10:36:14;10.13;;;4.13;;
15990;SDS011;8100;50.994;4.538;2023-08-17T10:41:58;6.22;;;4.20;;
15990;SDS011;8100;50.994;4.538;2023-08-17T10:44:46;6.22;;;4.28;;
15990;SDS011;8100;50.994;4.538;2023-08-17T10:47:34;7.82;;;4.85;;
15990;SDS011;8100;50.994;4.538;2023-08-17T10:50:22;9.73;;;5.03;;
15990;SDS011;8100;50.994;4.538;2023-08-17T10:53:11;10.77;;;4.95;;
15990;SDS011;8100;50.994;4.538;2023-08-17T10:56:01;10.20;;;5.68;;
15990;SDS011;8100;50.994;4.538;2023-08-17T10:58:54;9.07;;;5.40;;
15990;SDS011;8100;50.994;4.538;2023-08-17T11:01:45;9.82;;;4.82;;
15990;SDS011;8100;50.994;4.538;2023-08-17T11:04:37;8.10;;;4.85;;
15990;SDS011;8100;50.994;4.538;2023-08-17T11:07:26;11.32;;;5.50;;
15990;SDS011;8100;50.994;4.538;2023-08-17T11:10:28;7.03;;;4.85;;
15990;SDS011;8100;50.994;4.538;2023-08-17T11:13:16;6.80;;;4.38;;
15990;SDS011;8100;50.994;4.538;2023-08-17T11:16:05;8.57;;;4.80;;
15990;SDS011;8100;50.994;4.538;2023-08-17T11:18:53;9.15;;;4.85;;
15990;SDS011;8100;50.994;4.538;2023-08-17T11:21:44;9.07;;;5.00;;
15990;SDS011;8100;50.994;4.538;2023-08-17T11:24:32;7.53;;;5.15;;
15990;SDS011;8100;50.994;4.538;2023-08-17T11:27:25;8.60;;;5.38;;
15990;SDS011;8100;50.994;4.538;2023-08-17T11:30:13;9.15;;;6.13;;
15990;SDS011;8100;50.994;4.538;2023-08-17T11:33:03;10.05;;;6.10;;
15990;SDS011;8100;50.994;4.538;2023-08-17T11:35:53;13.57;;;6.80;;
15990;SDS011;8100;50.994;4.538;2023-08-17T11:38:42;12.55;;;6.90;;
15990;SDS011;8100;50.994;4.538;2023-08-17T11:41:30;11.80;;;7.18;;
15990;SDS011;8100;50.994;4.538;2023-08-17T11:44:18;12.73;;;6.88;;
15990;SDS011;8100;50.994;4.538;2023-08-17T11:47:07;9.82;;;6.60;;
15990;SDS011;8100;50.994;4.538;2023-08-17T11:50:00;11.95;;;7.28;;
15990;SDS011;8100;50.994;4.538;2023-08-17T11:52:47;13.98;;;7.40;;
15990;SDS011;8100;50.994;4.538;2023-08-17T11:55:34;11.00;;;6.85;;
15990;SDS011;8100;50.994;4.538;2023-08-17T11:58:35;14.18;;;7.18;;
15990;SDS011;8100;50.994;4.538;2023-08-17T12:01:23;13.93;;;6.88;;
15990;SDS011;8100;50.994;4.538;2023-08-17T12:04:10;15.70;;;7.70;;
15990;SDS011;8100;50.994;4.538;2023-08-17T12:06:59;12.63;;;7.32;;
15990;SDS011;8100;50.994;4.538;2023-08-17T12:09:47;13.13;;;7.80;;
15990;SDS011;8100;50.994;4.538;2023-08-17T12:12:36;13.32;;;8.32;;
15990;SDS011;8100;50.994;4.538;2023-08-17T12:15:24;9.50;;;6.05;;
15990;SDS011;8100;50.994;4.538;2023-08-17T12:18:16;13.63;;;7.47;;
15990;SDS011;8100;50.994;4.538;2023-08-17T12:21:04;12.98;;;7.85;;
15990;SDS011;8100;50.994;4.538;2023-08-17T12:23:54;12.20;;;7.70;;
15990;SDS011;8100;50.994;4.538;2023-08-17T12:26:41;13.27;;;7.57;;
15990;SDS011;8100;50.994;4.538;2023-08-17T12:29:29;9.43;;;7.15;;
15990;SDS011;8100;50.994;4.538;2023-08-17T12:32:17;11.60;;;7.75;;
15990;SDS011;8100;50.994;4.538;2023-08-17T12:35:06;13.90;;;8.18;;
15990;SDS011;8100;50.994;4.538;2023-08-17T12:37:54;11.82;;;7.60;;
15990;SDS011;8100;50.994;4.538;2023-08-17T12:40:43;11.50;;;7.60;;
15990;SDS011;8100;50.994;4.538;2023-08-17T12:43:30;13.93;;;8.48;;
15990;SDS011;8100;50.994;4.538;2023-08-17T12:46:17;12.43;;;7.55;;
15990;SDS011;8100;50.994;4.538;2023-08-17T12:49:05;10.48;;;6.90;;
15990;SDS011;8100;50.994;4.538;2023-08-17T12:51:52;10.23;;;7.22;;
15990;SDS011;8100;50.994;4.538;2023-08-17T12:54:40;10.52;;;6.45;;
15990;SDS011;8100;50.994;4.538;2023-08-17T12:57:28;10.70;;;7.15;;
15990;SDS011;8100;50.994;4.538;2023-08-17T13:00:16;9.98;;;7.22;;
15990;SDS011;8100;50.994;4.538;2023-08-17T13:03:04;10.25;;;7.22;;
15990;SDS011;8100;50.994;4.538;2023-08-17T13:05:51;13.20;;;8.18;;
15990;SDS011;8100;50.994;4.538;2023-08-17T13:08:38;11.68;;;7.60;;
15990;SDS011;8100;50.994;4.538;2023-08-17T13:11:26;10.43;;;6.93;;
15990;SDS011;8100;50.994;4.538;2023-08-17T13:14:14;9.02;;;7.25;;
15990;SDS011;8100;50.994;4.538;2023-08-17T13:17:02;12.18;;;7.10;;
15990;SDS011;8100;50.994;4.538;2023-08-17T13:19:50;11.55;;;6.70;;
15990;SDS011;8100;50.994;4.538;2023-08-17T13:22:37;11.05;;;7.15;;
15990;SDS011;8100;50.994;4.538;2023-08-17T13:25:24;12.13;;;7.22;;
15990;SDS011;8100;50.994;4.538;2023-08-17T13:28:12;10.02;;;6.85;;
15990;SDS011;8100;50.994;4.538;2023-08-17T13:31:00;11.25;;;7.25;;
15990;SDS011;8100;50.994;4.538;2023-08-17T13:33:48;8.35;;;6.68;;
15990;SDS011;8100;50.994;4.538;2023-08-17T13:36:35;10.02;;;6.90;;
15990;SDS011;8100;50.994;4.538;2023-08-17T13:39:22;13.30;;;6.88;;
15990;SDS011;8100;50.994;4.538;2023-08-17T13:42:10;11.55;;;7.28;;
15990;SDS011;8100;50.994;4.538;2023-08-17T13:44:57;11.13;;;7.20;;
15990;SDS011;8100;50.994;4.538;2023-08-17T13:47:45;9.50;;;6.75;;
15990;SDS011;8100;50.994;4.538;2023-08-17T13:50:33;8.82;;;6.60;;
15990;SDS011;8100;50.994;4.538;2023-08-17T13:53:20;9.13;;;6.60;;
15990;SDS011;8100;50.994;4.538;2023-08-17T13:56:07;7.32;;;6.03;;
15990;SDS011;8100;50.994;4.538;2023-08-17T13:58:55;13.18;;;6.50;;
15990;SDS011;8100;50.994;4.538;2023-08-17T14:01:42;13.73;;;6.35;;
15990;SDS011;8100;50.994;4.538;2023-08-17T14:04:31;10.95;;;6.43;;
15990;SDS011;8100;50.994;4.538;2023-08-17T14:07:18;10.75;;;6.82;;
15990;SDS011;8100;50.994;4.538;2023-08-17T14:10:06;10.65;;;6.20;;
15990;SDS011;8100;50.994;4.538;2023-08-17T14:12:53;11.32;;;7.00;;
15990;SDS011;8100;50.994;4.538;2023-08-17T14:15:41;12.20;;;7.25;;
15990;SDS011;8100;50.994;4.538;2023-08-17T14:18:28;17.50;;;7.32;;
15990;SDS011;8100;50.994;4.538;2023-08-17T14:21:17;11.13;;;7.45;;
15990;SDS011;8100;50.994;4.538;2023-08-17T14:24:04;10.13;;;7.28;;
15990;SDS011;8100;50.994;4.538;2023-08-17T14:26:53;10.90;;;6.60;;
15990;SDS011;8100;50.994;4.538;2023-08-17T14:29:42;10.50;;;6.90;;
15990;SDS011;8100;50.994;4.538;2023-08-17T14:32:29;10.32;;;7.70;;
15990;SDS011;8100;50.994;4.538;2023-08-17T14:35:16;11.68;;;8.25;;
15990;SDS011;8100;50.994;4.538;2023-08-17T14:38:05;10.93;;;7.53;;
15990;SDS011;8100;50.994;4.538;2023-08-17T14:40:54;10.55;;;7.40;;
15990;SDS011;8100;50.994;4.538;2023-08-17T14:43:41;10.80;;;7.88;;
15990;SDS011;8100;50.994;4.538;2023-08-17T14:46:29;13.30;;;8.10;;
15990;SDS011;8100;50.994;4.538;2023-08-17T14:49:16;9.75;;;7.22;;
15990;SDS011;8100;50.994;4.538;2023-08-17T14:52:04;11.35;;;6.88;;
15990;SDS011;8100;50.994;4.538;2023-08-17T14:54:53;11.65;;;7.45;;
15990;SDS011;8100;50.994;4.538;2023-08-17T14:57:40;10.15;;;7.10;;
15990;SDS011;8100;50.994;4.538;2023-08-17T15:00:27;11.23;;;7.70;;
15990;SDS011;8100;50.994;4.538;2023-08-17T15:03:15;13.98;;;7.03;;
15990;SDS011;8100;50.994;4.538;2023-08-17T15:06:02;11.30;;;7.07;;
15990;SDS011;8100;50.994;4.538;2023-08-17T15:08:49;11.48;;;7.55;;
15990;SDS011;8100;50.994;4.538;2023-08-17T15:11:38;11.68;;;7.72;;
15990;SDS011;8100;50.994;4.538;2023-08-17T15:14:25;11.80;;;8.00;;
15990;SDS011;8100;50.994;4.538;2023-08-17T15:17:13;9.80;;;7.10;;
15990;SDS011;8100;50.994;4.538;2023-08-17T15:20:00;12.57;;;8.32;;
15990;SDS011;8100;50.994;4.538;2023-08-17T15:22:48;12.32;;;7.80;;
15990;SDS011;8100;50.994;4.538;2023-08-17T15:25:36;12.00;;;7.82;;
15990;SDS011;8100;50.994;4.538;2023-08-17T15:28:24;9.63;;;6.45;;
15990;SDS011;8100;50.994;4.538;2023-08-17T15:31:11;12.07;;;7.80;;
15990;SDS011;8100;50.994;4.538;2023-08-17T15:33:59;10.27;;;8.43;;
15990;SDS011;8100;50.994;4.538;2023-08-17T15:36:46;11.65;;;8.30;;
15990;SDS011;8100;50.994;4.538;2023-08-17T15:39:33;14.40;;;7.63;;
15990;SDS011;8100;50.994;4.538;2023-08-17T15:42:21;10.75;;;7.38;;
15990;SDS011;8100;50.994;4.538;2023-08-17T15:45:10;16.15;;;8.48;;
15990;SDS011;8100;50.994;4.538;2023-08-17T15:47:57;13.05;;;8.25;;
15990;SDS011;8100;50.994;4.538;2023-08-17T15:50:44;13.52;;;8.07;;
15990;SDS011;8100;50.994;4.538;2023-08-17T15:53:32;15.82;;;8.77;;
15990;SDS011;8100;50.994;4.538;2023-08-17T15:56:19;12.82;;;8.65;;
15990;SDS011;8100;50.994;4.538;2023-08-17T15:59:07;14.07;;;7.88;;
15990;SDS011;8100;50.994;4.538;2023-08-17T16:01:55;12.73;;;8.10;;
15990;SDS011;8100;50.994;4.538;2023-08-17T16:04:42;12.20;;;8.10;;
15990;SDS011;8100;50.994;4.538;2023-08-17T16:07:30;17.73;;;9.27;;
15990;SDS011;8100;50.994;4.538;2023-08-17T16:10:17;13.50;;;7.97;;
15990;SDS011;8100;50.994;4.538;2023-08-17T16:13:04;14.00;;;9.07;;
15990;SDS011;8100;50.994;4.538;2023-08-17T16:15:52;16.02;;;9.05;;
15990;SDS011;8100;50.994;4.538;2023-08-17T16:18:40;14.25;;;8.50;;
15990;SDS011;8100;50.994;4.538;2023-08-17T16:21:28;14.18;;;8.32;;
15990;SDS011;8100;50.994;4.538;2023-08-17T16:24:15;14.57;;;9.50;;
15990;SDS011;8100;50.994;4.538;2023-08-17T16:27:02;16.90;;;9.02;;
15990;SDS011;8100;50.994;4.538;2023-08-17T16:29:50;13.27;;;8.77;;
15990;SDS011;8100;50.994;4.538;2023-08-17T16:32:37;13.18;;;8.23;;
15990;SDS011;8100;50.994;4.538;2023-08-17T16:35:26;13.18;;;8.35;;
15990;SDS011;8100;50.994;4.538;2023-08-17T16:38:13;13.45;;;8.55;;
15990;SDS011;8100;50.994;4.538;2023-08-17T16:41:01;15.05;;;8.38;;
15990;SDS011;8100;50.994;4.538;2023-08-17T16:43:48;16.23;;;8.48;;
15990;SDS011;8100;50.994;4.538;2023-08-17T16:46:35;13.93;;;8.85;;
15990;SDS011;8100;50.994;4.538;2023-08-17T16:49:23;14.70;;;8.30;;
15990;SDS011;8100;50.994;4.538;2023-08-17T16:52:12;15.20;;;8.70;;
15990;SDS011;8100;50.994;4.538;2023-08-17T16:54:59;14.85;;;8.40;;
15990;SDS011;8100;50.994;4.538;2023-08-17T16:57:46;13.32;;;7.68;;
15990;SDS011;8100;50.994;4.538;2023-08-17T17:00:33;17.50;;;9.52;;
15990;SDS011;8100;50.994;4.538;2023-08-17T17:03:21;12.90;;;8.82;;
15990;SDS011;8100;50.994;4.538;2023-08-17T17:06:08;17.20;;;8.88;;
15990;SDS011;8100;50.994;4.538;2023-08-17T17:08:57;14.43;;;8.93;;
15990;SDS011;8100;50.994;4.538;2023-08-17T17:11:45;15.43;;;7.93;;